Time;durP1;ratioP1;P1;durP2;ratioP2;P2;SDS_P1;SDS_P2;PMS_P1;PMS_P2;Temp;Humidity;BMP_temperature;BMP_pressure;BME280_temperature;BME280_humidity;BME280_pressure;Samples;Min_cycle;Max_cycle;Signal;HPM_P1;HPM_P2
2024/01/30 00:01:54;;;;;;;23.10;14.30;;;;;;;-0.72;65.19;102691.05;105955;1254;60454;-70
2024/01/30 00:04:21;;;;;;;20.80;13.60;;;;;;;-0.73;65.08;102695.04;105880;1252;65176;-72
2024/01/30 00:06:50;;;;;;;22.10;14.40;;;;;;;-0.74;65.07;102694.86;105980;1251;60440;-71
2024/01/30 00:09:17;;;;;;;23.40;14.70;;;;;;;-0.75;65.08;102696.94;106029;1257;64745;-71
2024/01/30 00:11:43;;;;;;;23.40;14.60;;;;;;;-0.77;65.06;102694.33;106158;1251;60435;-70
2024/01/30 00:14:10;;;;;;;24.50;14.80;;;;;;;-0.78;65.06;102692.05;105868;1251;60502;-71
2024/01/30 00:16:37;;;;;;;22.10;14.20;;;;;;;-0.78;65.06;102693.61;106027;1256;65172;-71
2024/01/30 00:19:04;;;;;;;22.00;14.30;;;;;;;-0.79;65.10;102695.69;106062;1251;60501;-71
2024/01/30 00:21:32;;;;;;;19.60;13.60;;;;;;;-0.81;65.10;102694.13;105868;1251;62880;-69
2024/01/30 00:23:59;;;;;;;20.50;13.00;;;;;;;-0.82;65.07;102692.73;106046;1254;61778;-70
2024/01/30 00:26:26;;;;;;;22.40;13.80;;;;;;;-0.83;65.17;102691.87;106089;1257;60504;-71
2024/01/30 00:28:52;;;;;;;20.30;13.30;;;;;;;-0.84;65.16;102687.20;106131;1254;65162;-70
2024/01/30 00:31:19;;;;;;;21.30;12.90;;;;;;;-0.85;65.11;102682.89;105958;1257;60545;-70
2024/01/30 00:33:46;;;;;;;21.80;13.70;;;;;;;-0.85;65.06;102679.93;106078;1257;63845;-69
2024/01/30 00:36:14;;;;;;;19.90;12.90;;;;;;;-0.84;65.18;102676.83;105861;1253;60913;-70
2024/01/30 00:38:40;;;;;;;22.60;13.50;;;;;;;-0.86;65.11;102680.63;106028;1254;60405;-71
2024/01/30 00:41:10;;;;;;;19.70;13.20;;;;;;;-0.87;65.13;102682.50;105951;1257;65263;-69
2024/01/30 00:43:37;;;;;;;17.20;12.30;;;;;;;-0.88;65.13;102681.63;106084;1251;60537;-68
2024/01/30 00:46:04;;;;;;;23.30;14.40;;;;;;;-0.90;65.00;102680.59;106071;1251;62716;-71
2024/01/30 00:48:31;;;;;;;23.00;14.30;;;;;;;-0.92;64.91;102682.31;106191;1251;60501;-70
2024/01/30 00:50:58;;;;;;;23.40;13.50;;;;;;;-0.95;64.83;102679.02;105820;1259;60496;-70
2024/01/30 00:53:26;;;;;;;18.90;12.20;;;;;;;-1.00;64.85;102676.04;106203;1251;65837;-71
2024/01/30 00:55:53;;;;;;;22.80;13.80;;;;;;;-1.04;64.94;102679.15;106030;1251;60713;-70
2024/01/30 00:58:20;;;;;;;23.60;14.70;;;;;;;-1.05;64.93;102678.80;106107;1251;65652;-71
2024/01/30 01:00:47;;;;;;;26.00;14.50;;;;;;;-1.07;64.90;102679.45;106022;1251;61230;-69
2024/01/30 01:03:14;;;;;;;26.90;15.10;;;;;;;-1.10;64.88;102676.67;106055;1256;61409;-68
2024/01/30 01:05:40;;;;;;;24.30;14.30;;;;;;;-1.12;64.80;102674.42;105953;1259;64983;-70
2024/01/30 01:08:08;;;;;;;20.50;12.60;;;;;;;-1.15;64.83;102667.34;106277;1251;60559;-71
2024/01/30 01:10:35;;;;;;;21.20;13.50;;;;;;;-1.13;64.91;102662.84;106137;1251;65709;-70
2024/01/30 01:13:02;;;;;;;21.70;13.50;;;;;;;-1.12;64.91;102659.91;106117;1250;60400;-70
2024/01/30 01:15:29;;;;;;;22.80;13.90;;;;;;;-1.12;64.89;102655.75;106041;1257;60454;-69
2024/01/30 01:17:57;;;;;;;23.90;13.50;;;;;;;-1.13;64.86;102656.62;105923;1251;65864;-72
2024/01/30 01:20:24;;;;;;;22.40;13.40;;;;;;;-1.15;64.81;102656.09;105951;1252;60444;-70
2024/01/30 01:22:52;;;;;;;24.10;14.50;;;;;;;-1.20;64.77;102653.46;106152;1254;63832;-70
2024/01/30 01:25:19;;;;;;;25.00;16.20;;;;;;;-1.23;64.74;102657.25;106268;1254;61132;-70
2024/01/30 01:27:51;;;;;;;27.90;17.40;;;;;;;-1.26;64.76;102654.63;106112;1257;59103;-70
2024/01/30 01:30:25;;;;;;;31.00;17.60;;;;;;;-1.29;64.69;102650.64;106215;1251;63870;-70
2024/01/30 01:32:56;;;;;;;26.40;16.40;;;;;;;-1.33;64.64;102650.11;106290;1257;59253;-71
2024/01/30 01:35:27;;;;;;;25.80;16.10;;;;;;;-1.37;64.69;102650.77;106202;1256;63867;-72
2024/01/30 01:37:59;;;;;;;25.20;15.10;;;;;;;-1.38;64.76;102653.00;105928;1259;60371;-72
2024/01/30 01:40:26;;;;;;;25.60;16.20;;;;;;;-1.39;64.82;102650.06;106343;1253;60417;-71
2024/01/30 01:42:56;;;;;;;26.00;16.30;;;;;;;-1.39;64.97;102648.51;106073;1251;64996;-71
2024/01/30 01:45:22;;;;;;;25.70;16.00;;;;;;;-1.38;64.99;102644.02;106306;1252;60439;-71
2024/01/30 01:47:52;;;;;;;28.20;17.00;;;;;;;-1.38;64.93;102644.88;105909;1253;63871;-70
2024/01/30 01:50:21;;;;;;;24.10;15.50;;;;;;;-1.38;64.94;102643.67;106020;1250;60429;-71
2024/01/30 01:52:48;;;;;;;24.50;14.80;;;;;;;-1.39;65.00;102641.94;106234;1251;60454;-71
2024/01/30 01:55:16;;;;;;;22.60;14.90;;;;;;;-1.38;65.05;102641.08;105960;1254;65280;-71
2024/01/30 01:57:43;;;;;;;23.20;14.90;;;;;;;-1.36;65.06;102638.66;106018;1257;60491;-71
2024/01/30 02:00:10;;;;;;;21.10;13.30;;;;;;;-1.35;65.01;102623.83;106243;1251;63890;-71
2024/01/30 02:02:37;;;;;;;20.70;13.60;;;;;;;-1.34;65.06;102619.00;106090;1251;60479;-71
2024/01/30 02:05:04;;;;;;;21.30;13.40;;;;;;;-1.35;64.97;102622.27;105948;1253;60414;-71
2024/01/30 02:07:31;;;;;;;19.70;12.90;;;;;;;-1.36;65.07;102621.04;105713;1260;65109;-71
2024/01/30 02:09:58;;;;;;;18.80;12.40;;;;;;;-1.35;65.09;102623.81;106074;1251;60463;-72
2024/01/30 02:12:25;;;;;;;21.10;12.80;;;;;;;-1.34;65.22;102618.84;106076;1253;64004;-71
2024/01/30 02:14:53;;;;;;;18.00;12.90;;;;;;;-1.34;65.26;102619.17;105967;1251;60517;-68
2024/01/30 02:17:20;;;;;;;18.10;12.70;;;;;;;-1.33;65.27;102620.39;106283;1251;60363;-70
2024/01/30 02:19:46;;;;;;;17.90;12.70;;;;;;;-1.32;65.35;102621.08;106129;1251;65032;-70
2024/01/30 02:22:14;;;;;;;19.20;13.20;;;;;;;-1.32;65.41;102616.93;105964;1251;60523;-70
2024/01/30 02:24:40;;;;;;;20.30;12.70;;;;;;;-1.31;65.49;102615.38;106246;1251;64633;-70
2024/01/30 02:27:07;;;;;;;19.60;12.80;;;;;;;-1.32;65.51;102611.58;105867;1253;60619;-70
2024/01/30 02:29:34;;;;;;;18.00;11.90;;;;;;;-1.30;65.43;102612.78;105994;1251;60349;-70
2024/01/30 02:32:01;;;;;;;20.10;13.30;;;;;;;-1.28;65.45;102606.58;105664;1260;65188;-70
2024/01/30 02:34:28;;;;;;;19.50;13.30;;;;;;;-1.29;65.54;102609.85;106117;1251;60540;-70
2024/01/30 02:36:55;;;;;;;19.00;12.70;;;;;;;-1.31;65.48;102609.15;106144;1251;62692;-68
2024/01/30 02:39:22;;;;;;;19.00;12.80;;;;;;;-1.33;65.44;102602.41;105614;1253;60618;-70
2024/01/30 02:41:49;;;;;;;20.20;13.70;;;;;;;-1.34;65.47;102600.85;105286;1258;60424;-69
2024/01/30 02:44:15;;;;;;;25.50;14.80;;;;;;;-1.35;65.43;102599.27;105725;1251;65231;-70
2024/01/30 02:46:42;;;;;;;22.30;14.40;;;;;;;-1.36;65.35;102601.86;106354;1256;60449;-70
2024/01/30 02:49:09;;;;;;;24.70;14.90;;;;;;;-1.38;65.24;102600.13;106069;1253;63788;-70
2024/01/30 02:51:37;;;;;;;23.90;14.20;;;;;;;-1.40;65.27;102597.52;105850;1260;60457;-70
2024/01/30 02:54:04;;;;;;;24.70;14.60;;;;;;;-1.41;65.24;102596.84;106424;1259;60457;-70
2024/01/30 02:56:31;;;;;;;21.30;13.40;;;;;;;-1.42;65.25;102596.66;106178;1251;65161;-70
2024/01/30 02:58:57;;;;;;;21.60;13.50;;;;;;;-1.42;65.24;102598.21;106224;1251;60463;-71
2024/01/30 03:01:24;;;;;;;29.00;16.10;;;;;;;-1.44;65.24;102599.75;106037;1251;62674;-71
2024/01/30 03:03:51;;;;;;;26.80;16.00;;;;;;;-1.46;65.36;102601.79;106445;1252;62076;-70
2024/01/30 03:06:20;;;;;;;28.00;16.80;;;;;;;-1.47;65.31;102600.07;106191;1250;60313;-69
2024/01/30 03:08:46;;;;;;;27.40;17.70;;;;;;;-1.48;65.28;102597.13;106218;1251;65210;-70
2024/01/30 03:11:13;;;;;;;30.20;18.70;;;;;;;-1.50;65.27;102596.95;105875;1254;60514;-70
2024/01/30 03:13:40;;;;;;;30.40;19.50;;;;;;;-1.50;65.22;102595.91;106192;1254;63790;-70
2024/01/30 03:16:08;;;;;;;32.00;20.00;;;;;;;-1.51;65.19;102594.36;106037;1258;60439;-70
2024/01/30 03:18:35;;;;;;;28.10;18.10;;;;;;;-1.51;65.12;102593.48;106082;1257;60367;-70
2024/01/30 03:21:01;;;;;;;31.10;18.80;;;;;;;-1.53;65.26;102588.99;105986;1251;63909;-70
2024/01/30 03:23:29;;;;;;;28.70;18.50;;;;;;;-1.55;65.31;102584.64;106068;1252;60293;-70
2024/01/30 03:25:56;;;;;;;30.10;18.00;;;;;;;-1.58;65.36;102587.73;105933;1256;62472;-69
2024/01/30 03:28:22;;;;;;;29.80;17.30;;;;;;;-1.58;65.48;102586.17;105895;1252;60744;-69
2024/01/30 03:30:49;;;;;;;26.80;18.00;;;;;;;-1.58;65.52;102582.73;105864;1250;60471;-70
2024/01/30 03:33:16;;;;;;;24.20;16.10;;;;;;;-1.57;65.61;102581.35;105843;1250;63778;-70
2024/01/30 03:35:43;;;;;;;28.30;17.10;;;;;;;-1.56;65.69;102578.24;105760;1253;60459;-69
2024/01/30 03:38:09;;;;;;;27.10;17.70;;;;;;;-1.56;65.66;102571.34;106074;1256;62592;-72
2024/01/30 03:40:36;;;;;;;28.20;17.30;;;;;;;-1.58;65.67;102570.98;106127;1251;60534;-70
2024/01/30 03:43:05;;;;;;;26.80;17.40;;;;;;;-1.59;65.70;102570.12;106214;1256;60718;-71
2024/01/30 03:45:31;;;;;;;31.20;18.60;;;;;;;-1.60;65.69;102568.91;105989;1251;65267;-71
2024/01/30 03:47:59;;;;;;;32.20;20.20;;;;;;;-1.60;65.62;102565.28;105845;1251;60417;-70
2024/01/30 03:50:26;;;;;;;30.70;19.90;;;;;;;-1.61;65.66;102565.79;106115;1251;62581;-70
2024/01/30 03:52:52;;;;;;;34.10;22.40;;;;;;;-1.61;65.64;102563.89;106140;1251;60367;-70
2024/01/30 03:55:19;;;;;;;32.60;21.10;;;;;;;-1.63;65.60;102559.39;105664;1251;60563;-70
2024/01/30 03:57:46;;;;;;;27.70;18.90;;;;;;;-1.66;65.69;102553.48;106020;1259;65043;-70
2024/01/30 04:00:14;;;;;;;27.80;18.10;;;;;;;-1.70;65.65;102550.36;106058;1251;60705;-70
2024/01/30 04:02:41;;;;;;;29.50;17.70;;;;;;;-1.72;65.64;102552.43;106059;1253;62911;-70
2024/01/30 04:05:08;;;;;;;26.90;16.70;;;;;;;-1.75;65.75;102550.33;106028;1254;60531;-69
2024/01/30 04:07:35;;;;;;;22.80;15.70;;;;;;;-1.74;65.87;102551.55;106395;1251;60329;-70
2024/01/30 04:10:04;;;;;;;24.90;15.30;;;;;;;-1.73;65.85;102546.39;106019;1251;65268;-70
2024/01/30 04:12:31;;;;;;;22.30;14.40;;;;;;;-1.73;65.99;102545.00;106215;1251;60428;-72
2024/01/30 04:14:58;;;;;;;25.00;15.30;;;;;;;-1.73;66.03;102542.23;106101;1251;63924;-71
2024/01/30 04:17:25;;;;;;;26.60;16.60;;;;;;;-1.73;66.08;102540.69;106213;1251;60428;-70
2024/01/30 04:19:51;;;;;;;25.40;16.80;;;;;;;-1.71;66.04;102541.20;106208;1251;60477;-70
2024/01/30 04:22:18;;;;;;;23.80;15.20;;;;;;;-1.71;66.00;102539.14;106114;1251;64989;-70
2024/01/30 04:24:45;;;;;;;32.00;19.30;;;;;;;-1.72;66.12;102537.58;106101;1251;60540;-69
2024/01/30 04:27:12;;;;;;;33.30;20.40;;;;;;;-1.73;66.22;102539.13;105970;1251;62551;-69
2024/01/30 04:29:39;;;;;;;31.60;20.00;;;;;;;-1.74;66.35;102539.13;106003;1254;60878;-69
2024/01/30 04:32:06;;;;;;;38.00;23.10;;;;;;;-1.76;66.27;102541.86;106087;1251;60466;-69
2024/01/30 04:34:33;;;;;;;39.90;25.60;;;;;;;-1.78;66.31;102543.40;105721;1251;64163;-69
2024/01/30 04:37:00;;;;;;;41.90;28.70;;;;;;;-1.79;66.38;102541.67;105958;1253;60374;-69
2024/01/30 04:39:27;;;;;;;43.60;27.70;;;;;;;-1.77;66.29;102542.20;105911;1252;63998;-68
2024/01/30 04:41:53;;;;;;;40.50;24.80;;;;;;;-1.78;66.17;102536.49;106018;1254;60496;-70
2024/01/30 04:44:20;;;;;;;41.90;25.30;;;;;;;-1.80;66.09;102530.44;106005;1251;60513;-70
2024/01/30 04:46:47;;;;;;;38.00;24.00;;;;;;;-1.83;66.06;102528.53;106027;1259;67345;-71
2024/01/30 04:49:14;;;;;;;36.80;23.80;;;;;;;-1.85;66.01;102535.39;106182;1251;60449;-72
2024/01/30 04:51:41;;;;;;;34.10;21.80;;;;;;;-1.87;65.95;102534.36;106091;1257;63826;-71
2024/01/30 04:54:08;;;;;;;33.30;20.70;;;;;;;-1.88;66.01;102526.42;106015;1253;60325;-70
2024/01/30 04:56:35;;;;;;;32.10;20.20;;;;;;;-1.88;66.02;102527.97;106030;1257;61058;-69
2024/01/30 04:59:02;;;;;;;28.50;18.30;;;;;;;-1.88;66.08;102527.10;106024;1253;64043;-68
2024/01/30 05:01:30;;;;;;;27.10;17.90;;;;;;;-1.88;66.10;102522.62;105580;1260;60483;-72
2024/01/30 05:03:57;;;;;;;26.40;16.60;;;;;;;-1.88;66.02;102522.61;105966;1251;64020;-69
2024/01/30 05:06:26;;;;;;;26.00;17.50;;;;;;;-1.88;66.03;102530.56;106034;1251;60439;-69
2024/01/30 05:08:53;;;;;;;24.50;16.80;;;;;;;-1.88;66.00;102531.25;106082;1251;60536;-69
2024/01/30 05:11:20;;;;;;;23.90;15.60;;;;;;;-1.91;66.01;102529.34;106203;1256;65200;-74
2024/01/30 05:13:47;;;;;;;27.20;17.40;;;;;;;-1.94;66.01;102526.38;106202;1250;60546;-73
2024/01/30 05:16:14;;;;;;;30.70;18.90;;;;;;;-1.95;65.93;102526.52;106202;1250;71274;-74
2024/01/30 05:18:40;;;;;;;31.90;19.80;;;;;;;-1.94;66.02;102530.16;106265;1255;60526;-77
2024/01/30 05:21:08;;;;;;;34.10;20.80;;;;;;;-1.93;66.06;102527.77;105944;1253;60451;-74
2024/01/30 05:23:34;;;;;;;33.60;20.30;;;;;;;-1.93;66.01;102526.55;105816;1256;65004;-70
2024/01/30 05:26:02;;;;;;;35.30;20.70;;;;;;;-1.93;66.09;102526.23;106091;1251;60457;-69
2024/01/30 05:28:30;;;;;;;33.90;20.10;;;;;;;-1.93;66.02;102523.11;106187;1251;63886;-72
2024/01/30 05:30:57;;;;;;;37.90;22.00;;;;;;;-1.94;66.02;102524.64;105738;1253;60305;-71
2024/01/30 05:33:23;;;;;;;36.50;20.80;;;;;;;-1.94;66.07;102525.50;105975;1253;60447;-69
2024/01/30 05:35:54;;;;;;;37.50;22.00;;;;;;;-1.93;66.23;102525.36;105638;1254;65269;-72
2024/01/30 05:38:21;;;;;;;35.30;22.30;;;;;;;-1.91;66.19;102526.06;105831;1257;61009;-71
2024/01/30 05:40:48;;;;;;;39.60;22.40;;;;;;;-1.91;66.21;102527.10;105680;1253;64136;-69
2024/01/30 05:43:15;;;;;;;37.00;22.20;;;;;;;-1.91;66.16;102527.96;105692;1251;60971;-68
2024/01/30 05:45:42;;;;;;;41.60;24.10;;;;;;;-1.92;66.15;102530.20;105789;1250;60470;-68
2024/01/30 05:48:09;;;;;;;42.80;23.40;;;;;;;-1.94;66.17;102534.15;105778;1251;64020;-72
2024/01/30 05:50:37;;;;;;;42.70;23.90;;;;;;;-1.93;66.26;102541.22;106568;1257;62138;-69
2024/01/30 05:53:04;;;;;;;42.30;24.30;;;;;;;-1.92;66.32;102536.77;106171;1254;64061;-74
2024/01/30 05:55:31;;;;;;;40.60;24.80;;;;;;;-1.92;66.29;102531.06;106075;1251;60462;-73
2024/01/30 05:57:57;;;;;;;45.00;25.10;;;;;;;-1.92;66.21;102528.30;105851;1251;60450;-73
2024/01/30 06:00:24;;;;;;;41.70;25.20;;;;;;;-1.92;66.22;102526.05;105768;1256;64976;-74
2024/01/30 06:02:51;;;;;;;42.30;24.60;;;;;;;-1.94;66.27;102520.33;106024;1251;60410;-73
2024/01/30 06:05:18;;;;;;;35.10;21.40;;;;;;;-1.94;66.28;102521.20;105806;1256;63982;-72
2024/01/30 06:07:45;;;;;;;37.80;22.00;;;;;;;-1.92;66.33;102522.77;105917;1252;60434;-71
2024/01/30 06:10:12;;;;;;;32.60;19.40;;;;;;;-1.89;66.41;102518.47;106170;1251;60544;-71
2024/01/30 06:12:39;;;;;;;32.40;18.50;;;;;;;-1.85;66.49;102518.13;105930;1251;65376;-70
2024/01/30 06:15:07;;;;;;;26.70;17.00;;;;;;;-1.83;66.61;102519.38;105809;1251;61074;-71
2024/01/30 06:17:34;;;;;;;27.10;17.40;;;;;;;-1.77;66.73;102519.23;105946;1254;64006;-71
2024/01/30 06:20:01;;;;;;;25.80;15.90;;;;;;;-1.71;66.80;102517.70;105705;1251;60530;-70
2024/01/30 06:22:28;;;;;;;24.80;15.20;;;;;;;-1.64;66.86;102520.00;106093;1250;60440;-71
2024/01/30 06:24:55;;;;;;;23.90;14.50;;;;;;;-1.58;66.91;102517.95;105884;1256;65248;-73
2024/01/30 06:27:22;;;;;;;21.10;13.70;;;;;;;-1.53;66.88;102520.74;106116;1251;60516;-70
2024/01/30 06:29:48;;;;;;;21.80;14.00;;;;;;;-1.49;66.89;102524.38;106015;1251;65995;-70
2024/01/30 06:32:15;;;;;;;20.60;12.90;;;;;;;-1.43;66.89;102527.02;105893;1253;60457;-74
2024/01/30 06:34:44;;;;;;;27.70;14.40;;;;;;;-1.38;66.82;102527.71;105918;1250;60460;-71
2024/01/30 06:37:11;;;;;;;24.30;16.10;;;;;;;-1.34;66.86;102527.92;106013;1251;66925;-71
2024/01/30 06:39:37;;;;;;;23.90;16.00;;;;;;;-1.28;66.80;102526.90;106237;1250;60408;-72
2024/01/30 06:42:05;;;;;;;22.10;14.20;;;;;;;-1.23;66.80;102523.47;106083;1251;63810;-71
2024/01/30 06:44:32;;;;;;;29.90;16.40;;;;;;;-1.18;66.82;102530.55;105816;1251;60334;-72
2024/01/30 06:46:59;;;;;;;30.30;18.20;;;;;;;-1.13;66.87;102536.80;105948;1256;60432;-72
2024/01/30 06:49:26;;;;;;;31.20;18.90;;;;;;;-1.06;66.87;102541.15;105894;1251;65150;-71
2024/01/30 06:51:53;;;;;;;32.80;20.40;;;;;;;-1.00;66.78;102536.33;105910;1254;60454;-70
2024/01/30 06:54:20;;;;;;;33.40;20.10;;;;;;;-0.95;66.77;102535.30;105705;1250;62775;-71
2024/01/30 06:56:47;;;;;;;29.80;17.90;;;;;;;-0.90;66.74;102537.56;105787;1251;60517;-71
2024/01/30 06:59:13;;;;;;;25.90;17.50;;;;;;;-0.84;66.64;102540.02;106050;1250;60511;-72
2024/01/30 07:01:40;;;;;;;25.60;17.90;;;;;;;-0.77;66.64;102539.16;105988;1253;65125;-72
2024/01/30 07:04:07;;;;;;;27.60;18.30;;;;;;;-0.70;66.50;102541.23;105745;1253;60436;-72
2024/01/30 07:06:35;;;;;;;30.10;19.40;;;;;;;-0.67;66.44;102542.64;106092;1254;64173;-72
2024/01/30 07:09:02;;;;;;;30.60;19.30;;;;;;;-0.60;66.44;102548.36;105935;1250;60377;-73
2024/01/30 07:11:30;;;;;;;33.40;20.00;;;;;;;-0.52;66.42;102549.75;105933;1250;60454;-72
2024/01/30 07:13:56;;;;;;;31.60;19.80;;;;;;;-0.43;66.47;102550.62;105927;1251;64878;-73
2024/01/30 07:16:23;;;;;;;31.50;20.10;;;;;;;-0.33;66.45;102545.61;105582;1250;200427;-71
2024/01/30 07:18:51;;;;;;;30.30;20.30;;;;;;;-0.25;66.35;102541.98;106060;1253;63934;-73
2024/01/30 07:21:17;;;;;;;34.80;20.00;;;;;;;-0.20;66.24;102536.61;105973;1250;60576;-71
2024/01/30 07:23:44;;;;;;;26.00;16.60;;;;;;;-0.13;66.16;102538.16;106042;1250;60351;-72
2024/01/30 07:26:11;;;;;;;21.30;14.40;;;;;;;-0.04;66.19;102534.00;106007;1250;64974;-72
2024/01/30 07:28:38;;;;;;;20.30;14.50;;;;;;;0.06;66.10;102529.65;106041;1251;60352;-71
2024/01/30 07:31:06;;;;;;;17.60;12.90;;;;;;;0.15;65.91;102523.58;105924;1251;62870;-71
2024/01/30 07:33:33;;;;;;;20.40;13.40;;;;;;;0.22;65.86;102520.10;106017;1251;60332;-73
2024/01/30 07:36:00;;;;;;;20.10;13.30;;;;;;;0.31;65.73;102519.56;106074;1251;60451;-72
2024/01/30 07:38:26;;;;;;;24.10;14.20;;;;;;;0.41;65.68;102515.38;106057;1250;63759;-72
2024/01/30 07:40:53;;;;;;;18.70;13.20;;;;;;;0.50;65.61;102513.61;106096;1251;60463;-71
2024/01/30 07:43:20;;;;;;;18.90;13.10;;;;;;;0.59;65.38;102505.77;105720;1253;63926;-73
2024/01/30 07:45:47;;;;;;;18.30;13.50;;;;;;;0.65;65.08;102500.37;105912;1250;60528;-73
2024/01/30 07:48:14;;;;;;;20.10;14.20;;;;;;;0.71;65.00;102499.13;106006;1250;60543;-72
2024/01/30 07:50:41;;;;;;;20.00;13.80;;;;;;;0.78;64.98;102501.70;105753;1251;65217;-73
2024/01/30 07:53:08;;;;;;;22.10;16.30;;;;;;;0.87;64.93;102505.81;105918;1254;60352;-72
2024/01/30 07:55:35;;;;;;;22.50;17.40;;;;;;;0.96;64.72;102506.80;106159;1251;64206;-73
2024/01/30 07:58:04;;;;;;;19.90;15.90;;;;;;;1.06;64.57;102505.55;106013;1254;60405;-73
2024/01/30 08:00:31;;;;;;;15.70;12.30;;;;;;;1.13;63.94;102504.96;106183;1250;60434;-73
2024/01/30 08:02:58;;;;;;;17.10;12.90;;;;;;;1.19;63.72;102502.69;105913;1253;65176;-71
2024/01/30 08:05:25;;;;;;;17.20;12.30;;;;;;;1.23;63.23;102496.39;105995;1250;60419;-71
2024/01/30 08:07:53;;;;;;;17.20;12.70;;;;;;;1.24;62.58;102491.17;106093;1250;64089;-72
2024/01/30 08:10:20;;;;;;;21.20;13.70;;;;;;;1.27;62.51;102492.21;106020;1253;60617;-72
2024/01/30 08:12:47;;;;;;;15.30;11.50;;;;;;;1.32;62.27;102494.77;105922;1250;60432;-73
2024/01/30 08:15:14;;;;;;;16.20;11.50;;;;;;;1.38;62.09;102494.92;105916;1254;64961;-73
2024/01/30 08:17:41;;;;;;;14.30;11.40;;;;;;;1.44;61.86;102492.61;106065;1254;60412;-73
2024/01/30 08:20:10;;;;;;;15.40;11.00;;;;;;;1.50;61.69;102491.16;105985;1250;63800;-73
2024/01/30 08:22:40;;;;;;;15.70;12.20;;;;;;;1.56;61.10;102490.08;106116;1250;60322;-74
2024/01/30 08:25:07;;;;;;;14.30;10.10;;;;;;;1.61;60.66;102488.30;105847;1256;60443;-72
2024/01/30 08:27:35;;;;;;;13.90;10.60;;;;;;;1.63;60.56;102484.12;106107;1251;65200;-73
2024/01/30 08:30:02;;;;;;;12.90;9.50;;;;;;;1.70;60.40;102490.30;105998;1251;60448;-74
2024/01/30 08:32:29;;;;;;;13.10;8.90;;;;;;;1.77;60.07;102483.98;106079;1251;63839;-73
2024/01/30 08:34:56;;;;;;;11.10;9.00;;;;;;;1.84;59.66;102482.20;105682;1255;60429;-73
2024/01/30 08:37:23;;;;;;;13.90;10.40;;;;;;;1.89;59.73;102484.05;105837;1253;60464;-74
2024/01/30 08:39:50;;;;;;;14.90;11.50;;;;;;;1.97;59.56;102481.89;105862;1256;65777;-73
2024/01/30 08:42:22;;;;;;;16.60;11.60;;;;;;;2.03;59.18;102477.14;105889;1251;60500;-73
2024/01/30 08:44:51;;;;;;;14.70;10.50;;;;;;;2.09;59.16;102475.85;105771;1256;62770;-73
2024/01/30 08:47:18;;;;;;;11.30;8.80;;;;;;;2.17;59.09;102476.11;105820;1250;60420;-73
2024/01/30 08:49:45;;;;;;;12.70;8.90;;;;;;;2.23;58.79;102469.27;106077;1253;60431;-73
2024/01/30 08:52:13;;;;;;;14.20;10.00;;;;;;;2.31;58.64;102469.52;105832;1253;65182;-72
2024/01/30 08:54:40;;;;;;;17.50;14.20;;;;;;;2.35;58.14;102469.65;105962;1255;60412;-73
2024/01/30 08:57:06;;;;;;;17.90;12.70;;;;;;;2.39;57.96;102465.77;106044;1251;65773;-72
2024/01/30 08:59:33;;;;;;;16.60;11.70;;;;;;;2.43;57.55;102464.69;106048;1250;60460;-73
2024/01/30 09:02:00;;;;;;;15.20;10.80;;;;;;;2.47;57.47;102463.23;106025;1250;60448;-72
2024/01/30 09:04:39;;;;;;;12.30;9.00;;;;;;;2.55;57.70;102462.09;106108;1250;66493;-74
2024/01/30 09:07:09;;;;;;;18.70;12.70;;;;;;;2.64;57.38;102461.29;105964;1257;67181;-72
2024/01/30 09:09:43;;;;;;;21.00;15.20;;;;;;;2.71;56.97;102457.20;106173;1250;64833;-70
2024/01/30 09:12:11;;;;;;;15.40;9.60;;;;;;;2.76;56.64;102452.42;105960;1258;60296;-73
2024/01/30 09:14:39;;;;;;;14.10;10.50;;;;;;;2.82;56.26;102451.31;106114;1250;60458;-72
2024/01/30 09:17:06;;;;;;;12.30;9.40;;;;;;;2.86;55.89;102445.50;105892;1256;64974;-73
2024/01/30 09:19:33;;;;;;;11.60;7.60;;;;;;;2.90;55.67;102443.20;105901;1256;60319;-75
2024/01/30 09:22:00;;;;;;;10.40;7.60;;;;;;;2.94;55.46;102442.26;106086;1254;65724;-74
2024/01/30 09:24:27;;;;;;;10.00;7.30;;;;;;;2.99;55.30;102439.92;105723;1253;60447;-74
2024/01/30 09:26:54;;;;;;;9.90;8.10;;;;;;;3.05;55.25;102435.98;105992;1256;60419;-73
2024/01/30 09:29:21;;;;;;;11.30;7.40;;;;;;;3.12;54.98;102434.67;106047;1254;66865;-73
2024/01/30 09:31:48;;;;;;;9.10;6.50;;;;;;;3.19;54.70;102425.17;105996;1250;68498;-73
2024/01/30 09:34:15;;;;;;;9.10;6.60;;;;;;;3.25;54.72;102419.51;105913;1251;65182;-74
2024/01/30 09:36:42;;;;;;;9.60;7.00;;;;;;;3.35;54.76;102418.64;106121;1254;60912;-74
2024/01/30 09:39:09;;;;;;;11.40;8.10;;;;;;;3.47;54.46;102412.70;106119;1253;60556;-74
2024/01/30 09:41:46;;;;;;;16.60;12.70;;;;;;;3.54;54.10;102406.80;106030;1254;64903;-73
2024/01/30 09:44:13;;;;;;;18.40;12.70;;;;;;;3.62;54.17;102404.05;106060;1252;60382;-74
2024/01/30 09:46:40;;;;;;;11.70;7.50;;;;;;;3.74;54.11;102401.05;105922;1253;65936;-75
2024/01/30 09:49:07;;;;;;;8.40;6.50;;;;;;;3.84;53.64;102404.69;106161;1253;60511;-76
2024/01/30 09:51:34;;;;;;;7.60;6.10;;;;;;;3.94;53.59;102399.45;105796;1253;60451;-74
2024/01/30 09:54:02;;;;;;;7.60;5.70;;;;;;;4.04;53.20;102398.90;105771;1250;65879;-74
2024/01/30 09:56:35;;;;;;;7.20;5.70;;;;;;;4.12;52.66;102399.24;106073;1255;60416;-75
2024/01/30 09:59:01;;;;;;;8.00;5.80;;;;;;;4.14;52.00;102398.51;106041;1253;62539;-75
2024/01/30 10:01:29;;;;;;;8.20;5.90;;;;;;;4.18;52.18;102398.08;106014;1250;60358;-73
2024/01/30 10:03:56;;;;;;;7.40;5.90;;;;;;;4.30;52.00;102393.48;105974;1253;60704;-75
2024/01/30 10:06:24;;;;;;;7.50;5.90;;;;;;;4.43;51.96;102390.59;106052;1250;66055;-73
2024/01/30 10:08:51;;;;;;;7.70;6.00;;;;;;;4.55;51.84;102386.82;106063;1255;60434;-71
2024/01/30 10:11:18;;;;;;;10.20;7.70;;;;;;;4.69;51.43;102381.11;106080;1250;66199;-72
2024/01/30 10:13:45;;;;;;;10.90;8.00;;;;;;;4.80;51.32;102371.77;106022;1253;60499;-75
2024/01/30 10:16:16;;;;;;;17.50;12.50;;;;;;;4.88;50.59;102368.09;105999;1256;60432;-75
2024/01/30 10:18:43;;;;;;;9.70;7.00;;;;;;;4.89;50.23;102365.45;105838;1256;66718;-75
2024/01/30 10:21:11;;;;;;;8.30;6.70;;;;;;;4.92;50.79;102363.62;105975;1253;68579;-74
2024/01/30 10:23:38;;;;;;;12.00;9.10;;;;;;;5.08;51.02;102354.14;105986;1251;64931;-74
2024/01/30 10:26:08;;;;;;;12.30;9.30;;;;;;;5.27;50.30;102348.77;105765;1256;60494;-74
2024/01/30 10:28:37;;;;;;;13.40;10.20;;;;;;;5.40;49.66;102345.84;106044;1254;60486;-74
2024/01/30 10:31:04;;;;;;;15.90;12.10;;;;;;;5.44;49.17;102343.97;105799;1250;64656;-74
2024/01/30 10:33:33;;;;;;;10.50;7.70;;;;;;;5.45;48.47;102345.17;106164;1253;60655;-75
2024/01/30 10:36:04;;;;;;;8.50;6.10;;;;;;;5.41;48.48;102345.29;105964;1250;65025;-75
2024/01/30 10:38:32;;;;;;;6.50;4.60;;;;;;;5.43;48.35;102341.70;105921;1250;60406;-74
2024/01/30 10:41:00;;;;;;;5.90;4.90;;;;;;;5.49;48.28;102331.79;105909;1250;60875;-74
2024/01/30 10:43:40;;;;;;;5.70;4.50;;;;;;;5.60;48.55;102331.66;105806;1251;65172;-75
2024/01/30 10:46:12;;;;;;;5.30;4.00;;;;;;;5.70;47.80;102331.36;106010;1258;60556;-74
2024/01/30 10:48:44;;;;;;;5.60;4.20;;;;;;;5.71;47.35;102322.98;105652;1250;65564;-73
2024/01/30 10:51:12;;;;;;;7.00;5.60;;;;;;;5.67;47.22;102320.13;105959;1251;60572;-74
2024/01/30 10:53:39;;;;;;;7.40;5.60;;;;;;;5.67;47.50;102321.50;105759;1259;60408;-74
2024/01/30 10:56:06;;;;;;;9.10;7.30;;;;;;;5.79;47.75;102324.99;105842;1256;67118;-74
2024/01/30 10:58:33;;;;;;;8.50;6.30;;;;;;;5.95;47.56;102318.98;105790;1259;60461;-74
2024/01/30 11:01:00;;;;;;;7.70;5.70;;;;;;;6.12;47.64;102313.58;106090;1254;65847;-71
2024/01/30 11:03:27;;;;;;;6.40;5.20;;;;;;;6.34;47.70;102312.55;105953;1256;60395;-73
2024/01/30 11:05:58;;;;;;;8.00;6.00;;;;;;;6.54;46.96;102303.70;105858;1250;60597;-72
2024/01/30 11:08:28;;;;;;;7.80;5.80;;;;;;;6.68;46.49;102292.41;105964;1250;67095;-73